createdAt,value
2022-10-18T00:00:20.588Z,56.80
2022-10-18T00:02:47.565Z,57.08
2022-10-18T00:05:14.574Z,56.91
2022-10-18T00:07:41.598Z,57.26
2022-10-18T00:10:09.109Z,56.82
2022-10-18T00:12:36.651Z,56.82
2022-10-18T00:15:04.979Z,57.03
2022-10-18T00:17:32.180Z,56.59
2022-10-18T00:19:59.502Z,57.05
2022-10-18T00:22:26.493Z,56.93
2022-10-18T00:24:53.537Z,56.73
2022-10-18T00:27:20.497Z,56.85
2022-10-18T00:29:47.473Z,56.76
2022-10-18T00:32:14.524Z,57.10
2022-10-18T00:34:41.520Z,56.96
2022-10-18T00:37:08.462Z,57.23
2022-10-18T00:39:35.682Z,57.05
2022-10-18T00:42:03.731Z,57.06
2022-10-18T00:44:30.583Z,57.06
2022-10-18T00:47:01.924Z,57.06
2022-10-18T00:49:45.370Z,57.12
2022-10-18T00:52:33.219Z,56.75
2022-10-18T00:55:01.166Z,56.99
2022-10-18T00:57:28.188Z,56.64
2022-10-18T00:59:55.156Z,57.19
2022-10-18T01:02:22.263Z,57.03
2022-10-18T01:04:49.292Z,57.18
2022-10-18T01:07:47.505Z,56.93
2022-10-18T01:10:50.509Z,57.51
2022-10-18T01:13:58.408Z,56.98
2022-10-18T01:16:53.627Z,57.22
2022-10-18T01:19:46.238Z,56.59
2022-10-18T01:27:04.399Z,57.27
2022-10-18T01:30:02.133Z,56.66
2022-10-18T01:32:49.941Z,57.00
2022-10-18T01:35:22.638Z,56.88
2022-10-18T01:37:49.666Z,57.28
2022-10-18T01:40:19.089Z,56.84
2022-10-18T01:42:47.054Z,56.71
2022-10-18T01:45:14.421Z,57.28
2022-10-18T01:47:41.648Z,57.16
2022-10-18T01:50:09.252Z,57.21
2022-10-18T01:52:36.340Z,57.16
2022-10-18T01:55:03.385Z,57.13
2022-10-18T01:58:03.536Z,57.21
2022-10-18T02:00:35.943Z,56.91
2022-10-18T02:03:06.658Z,57.17
2022-10-18T02:05:36.483Z,56.77
2022-10-18T02:08:22.794Z,56.61
2022-10-18T02:11:02.693Z,56.75
2022-10-18T02:13:56.898Z,56.49
2022-10-18T02:16:44.731Z,56.75
2022-10-18T02:19:16.103Z,56.71
2022-10-18T02:21:43.790Z,56.68
2022-10-18T02:24:11.849Z,56.95
2022-10-18T02:26:38.862Z,57.13
2022-10-18T02:29:05.922Z,57.19
2022-10-18T02:31:44.921Z,56.98
2022-10-18T02:34:23.302Z,56.85
2022-10-18T02:36:54.278Z,57.27
2022-10-18T02:39:36.912Z,56.85
2022-10-18T02:42:08.286Z,57.06
2022-10-18T02:44:35.357Z,56.83
2022-10-18T02:47:02.798Z,56.59
2022-10-18T02:49:29.814Z,56.98
2022-10-18T02:51:56.769Z,56.91
2022-10-18T02:54:24.254Z,57.19
2022-10-18T02:56:53.596Z,56.68
2022-10-18T02:59:20.544Z,56.85
2022-10-18T03:01:47.611Z,56.99
2022-10-18T03:04:14.786Z,56.53
2022-10-18T03:06:41.859Z,57.11
2022-10-18T03:09:08.834Z,57.06
2022-10-18T03:11:35.781Z,56.81
2022-10-18T03:14:02.771Z,56.59
2022-10-18T03:16:29.754Z,56.98
2022-10-18T03:18:56.824Z,56.68
2022-10-18T03:21:23.875Z,56.87
2022-10-18T03:23:50.874Z,56.92
2022-10-18T03:26:17.885Z,57.10
2022-10-18T03:28:44.888Z,56.89
2022-10-18T03:31:11.929Z,57.09
2022-10-18T03:33:39.008Z,56.51
2022-10-18T03:36:06.300Z,56.44
2022-10-18T03:38:33.296Z,56.67
2022-10-18T03:41:00.260Z,56.85
2022-10-18T03:43:27.242Z,56.60
2022-10-18T03:45:54.281Z,56.80
2022-10-18T03:48:21.323Z,56.69
2022-10-18T03:50:48.325Z,56.59
2022-10-18T03:53:15.301Z,56.52
2022-10-18T03:55:42.290Z,56.74
2022-10-18T03:58:09.320Z,57.01
2022-10-18T04:00:36.411Z,56.53
2022-10-18T04:03:03.438Z,57.04
2022-10-18T04:05:31.543Z,56.75
2022-10-18T04:07:58.761Z,56.48
2022-10-18T04:10:25.854Z,57.06
2022-10-18T04:12:52.846Z,56.79
2022-10-18T04:15:20.041Z,56.69
2022-10-18T04:17:47.108Z,56.38
2022-10-18T04:20:14.321Z,56.96
2022-10-18T04:22:41.331Z,56.38
2022-10-18T04:25:08.397Z,56.25
2022-10-18T04:27:36.109Z,56.01
2022-10-18T04:30:03.104Z,56.23
2022-10-18T04:32:30.089Z,56.34
2022-10-18T04:34:57.096Z,56.51
2022-10-18T04:37:24.047Z,56.95
2022-10-18T04:39:53.513Z,56.64
2022-10-18T04:42:21.524Z,56.15
2022-10-18T04:44:48.557Z,56.39
2022-10-18T04:47:15.763Z,56.31
2022-10-18T04:49:42.821Z,56.20
2022-10-18T04:52:10.176Z,56.46
2022-10-18T04:54:37.319Z,56.42
2022-10-18T04:57:04.520Z,56.28
2022-10-18T04:59:31.558Z,56.26
2022-10-18T05:01:58.643Z,56.26
2022-10-18T05:04:25.733Z,56.12
2022-10-18T05:06:52.720Z,56.23
2022-10-18T05:09:19.808Z,56.44
2022-10-18T05:11:46.753Z,56.21
2022-10-18T05:14:13.749Z,56.22
2022-10-18T05:16:40.698Z,56.56
2022-10-18T05:19:07.687Z,56.38
2022-10-18T05:21:34.642Z,56.26
2022-10-18T05:24:01.635Z,56.60
2022-10-18T05:26:28.591Z,56.27
2022-10-18T05:28:55.695Z,56.40
2022-10-18T05:31:22.739Z,56.45
2022-10-18T05:33:49.695Z,56.80
2022-10-18T05:36:16.723Z,56.60
2022-10-18T05:38:44.269Z,56.31
2022-10-18T05:41:12.018Z,56.53
2022-10-18T05:43:39.786Z,56.54
2022-10-18T05:46:13.450Z,56.75
2022-10-18T05:52:29.411Z,56.51
2022-10-18T05:54:56.537Z,56.61
2022-10-18T05:57:23.474Z,56.25
2022-10-18T05:59:50.452Z,56.83
2022-10-18T06:02:17.494Z,56.01
2022-10-18T06:04:44.479Z,56.48
2022-10-18T06:07:11.712Z,56.65
2022-10-18T06:09:39.155Z,56.33
2022-10-18T06:12:06.191Z,56.17
2022-10-18T06:14:33.285Z,56.45
2022-10-18T06:17:00.271Z,56.69
2022-10-18T06:19:27.278Z,56.53
2022-10-18T06:21:54.245Z,56.26
2022-10-18T06:24:21.995Z,56.08
2022-10-18T06:26:49.692Z,56.56
2022-10-18T06:29:16.682Z,56.14
2022-10-18T06:31:43.667Z,56.33
2022-10-18T06:34:10.635Z,56.29
2022-10-18T06:36:37.587Z,56.34
2022-10-18T06:39:04.632Z,55.82
2022-10-18T06:41:31.589Z,55.88
2022-10-18T06:44:02.018Z,55.88
2022-10-18T06:46:28.963Z,55.98
2022-10-18T06:48:56.582Z,56.65
2022-10-18T06:51:23.617Z,55.98
2022-10-18T06:54:05.879Z,56.07
2022-10-18T06:56:37.825Z,55.69
2022-10-18T06:59:04.903Z,56.07
2022-10-18T07:01:31.950Z,55.95
2022-10-18T07:03:59.029Z,56.22
2022-10-18T07:06:26.119Z,56.46
2022-10-18T07:08:54.402Z,55.75
2022-10-18T07:11:26.618Z,55.59
2022-10-18T07:14:01.035Z,56.60
2022-10-18T07:16:28.038Z,56.24
2022-10-18T07:18:55.082Z,55.95
2022-10-18T07:21:23.529Z,55.98
2022-10-18T07:23:50.930Z,55.62
2022-10-18T07:26:20.380Z,55.98
2022-10-18T07:28:49.276Z,55.98
2022-10-18T07:31:16.340Z,56.20
2022-10-18T07:33:43.357Z,55.99
2022-10-18T07:36:11.313Z,56.24
2022-10-18T07:38:38.291Z,55.92
2022-10-18T07:41:06.919Z,56.18
2022-10-18T07:43:34.525Z,55.75
2022-10-18T07:46:02.756Z,56.37
2022-10-18T07:48:30.084Z,55.96
2022-10-18T07:51:00.871Z,56.09
2022-10-18T07:53:28.642Z,55.95
2022-10-18T07:55:59.548Z,55.88
2022-10-18T07:58:26.522Z,56.05
2022-10-18T08:00:53.649Z,55.83
2022-10-18T08:03:20.838Z,56.40
2022-10-18T08:05:54.316Z,55.71
2022-10-18T08:08:22.149Z,55.92
2022-10-18T08:10:49.122Z,56.42
2022-10-18T08:13:16.161Z,56.03
2022-10-18T08:15:43.312Z,55.87
2022-10-18T08:18:10.395Z,55.96
2022-10-18T08:20:37.465Z,55.64
2022-10-18T08:23:04.913Z,55.85
2022-10-18T08:25:32.011Z,55.74
2022-10-18T08:27:59.052Z,55.60
2022-10-18T08:30:26.056Z,56.01
2022-10-18T08:32:53.196Z,56.15
2022-10-18T08:35:20.208Z,55.76
2022-10-18T08:37:47.550Z,55.46
2022-10-18T08:40:14.884Z,55.33
2022-10-18T08:42:47.444Z,55.93
2022-10-18T08:45:30.114Z,55.76
2022-10-18T08:48:01.803Z,56.13
2022-10-18T08:50:35.569Z,56.05
2022-10-18T08:53:17.041Z,55.69
2022-10-18T08:55:48.345Z,55.69
2022-10-18T08:58:27.111Z,55.49
2022-10-18T09:01:33.644Z,55.73
2022-10-18T09:04:22.181Z,55.74
2022-10-18T09:07:06.181Z,55.64
2022-10-18T09:10:08.369Z,55.62
2022-10-18T09:12:50.285Z,56.02
2022-10-18T09:15:46.497Z,55.58
2022-10-18T09:18:22.809Z,55.62
2022-10-18T09:20:51.365Z,55.43
2022-10-18T09:23:44.616Z,56.02
2022-10-18T09:26:18.302Z,55.47
2022-10-18T09:29:01.179Z,55.64
2022-10-18T09:31:35.164Z,55.95
2022-10-18T09:34:08.839Z,55.60
2022-10-18T09:36:37.444Z,55.87
2022-10-18T09:39:12.873Z,55.58
2022-10-18T09:41:53.403Z,55.95
2022-10-18T09:44:34.162Z,55.69
2022-10-18T09:47:45.942Z,55.63
2022-10-18T09:50:21.915Z,55.50
2022-10-18T09:52:57.728Z,55.51
2022-10-18T09:55:31.306Z,55.84
2022-10-18T09:58:00.187Z,55.76
2022-10-18T10:00:31.971Z,55.40
2022-10-18T10:03:00.286Z,55.45
2022-10-18T10:05:27.314Z,55.41
2022-10-18T10:07:59.743Z,55.89
2022-10-18T10:10:27.450Z,55.41
2022-10-18T10:13:16.323Z,55.37
2022-10-18T10:15:56.830Z,55.34
2022-10-18T10:18:25.572Z,55.42
2022-10-18T10:21:00.503Z,55.69
2022-10-18T10:23:32.694Z,55.63
2022-10-18T10:26:04.772Z,55.34
2022-10-18T10:28:41.271Z,55.60
2022-10-18T10:31:17.363Z,55.83
2022-10-18T10:33:46.975Z,55.90
2022-10-18T10:36:18.358Z,55.53
2022-10-18T10:38:45.362Z,55.76
2022-10-18T10:41:22.220Z,55.59
2022-10-18T10:43:49.415Z,55.23
2022-10-18T10:46:19.367Z,55.63
2022-10-18T10:48:50.329Z,55.22
2022-10-18T10:51:27.946Z,55.24
2022-10-18T10:54:15.637Z,55.76
2022-10-18T10:57:00.999Z,55.41
2022-10-18T10:59:32.661Z,55.03
2022-10-18T11:02:17.809Z,55.05
2022-10-18T11:04:48.912Z,55.16
2022-10-18T11:07:35.957Z,55.24
2022-10-18T11:10:12.417Z,55.00
2022-10-18T11:12:52.467Z,55.48
2022-10-18T11:15:32.854Z,55.04
2022-10-18T11:18:19.154Z,55.02
2022-10-18T11:21:08.235Z,54.76
2022-10-18T11:23:38.237Z,55.34
2022-10-18T11:26:13.889Z,55.22
2022-10-18T11:29:05.569Z,55.23
2022-10-18T11:32:05.855Z,55.31
2022-10-18T11:34:47.893Z,55.01
2022-10-18T11:37:48.260Z,54.88
2022-10-18T11:40:39.385Z,55.06
2022-10-18T11:43:15.642Z,55.06
2022-10-18T11:45:46.348Z,55.13
2022-10-18T11:48:34.600Z,55.07
2022-10-18T11:51:34.139Z,54.99
2022-10-18T11:54:30.384Z,54.94
2022-10-18T11:57:17.521Z,55.00
2022-10-18T12:00:16.139Z,54.94
2022-10-18T12:03:04.406Z,54.91
2022-10-18T12:05:31.450Z,54.92
2022-10-18T12:08:05.904Z,54.68
2022-10-18T12:10:45.718Z,54.53
2022-10-18T12:13:29.947Z,54.81
2022-10-18T12:15:56.937Z,54.71
2022-10-18T12:18:24.608Z,55.04
2022-10-18T12:20:58.553Z,54.67
2022-10-18T12:23:54.180Z,54.54
2022-10-18T12:26:21.150Z,54.57
2022-10-18T12:29:12.753Z,54.69
2022-10-18T12:31:46.520Z,54.75
2022-10-18T12:34:49.761Z,54.58
2022-10-18T12:37:27.953Z,54.46
2022-10-18T12:40:21.830Z,54.48
2022-10-18T12:42:49.941Z,54.48
2022-10-18T12:45:29.517Z,54.32
2022-10-18T12:48:03.156Z,54.34
2022-10-18T12:50:31.311Z,54.32
2022-10-18T12:53:10.075Z,54.12
2022-10-18T12:55:40.957Z,54.32
2022-10-18T12:58:13.827Z,54.19
2022-10-18T13:00:43.757Z,54.19
2022-10-18T13:03:11.677Z,54.19
2022-10-18T13:05:55.858Z,54.38
2022-10-18T13:08:35.131Z,54.29
2022-10-18T13:11:02.125Z,54.21
2022-10-18T13:13:44.117Z,54.22
2022-10-18T13:16:22.967Z,54.23
2022-10-18T13:18:59.949Z,53.90
2022-10-18T13:21:26.895Z,53.93
2022-10-18T13:24:04.572Z,54.17
2022-10-18T13:27:35.050Z,53.57
2022-10-18T13:29:58.583Z,53.70
2022-10-18T13:32:45.562Z,53.78
2022-10-18T13:35:50.461Z,54.00
2022-10-18T13:38:41.698Z,53.73
2022-10-18T13:41:36.032Z,53.99
2022-10-18T13:44:02.939Z,53.76
2022-10-18T13:46:36.742Z,53.89
2022-10-18T13:49:40.356Z,53.63
2022-10-18T13:52:26.837Z,53.90
2022-10-18T13:54:59.560Z,53.87
2022-10-18T13:57:26.558Z,53.94
2022-10-18T14:00:17.788Z,53.67
2022-10-18T14:03:54.992Z,53.64
2022-10-18T14:06:22.603Z,54.00
2022-10-18T14:09:09.627Z,54.14
2022-10-18T14:11:54.356Z,53.89
2022-10-18T14:14:38.535Z,54.11
2022-10-18T14:17:16.857Z,53.70
2022-10-18T14:19:47.084Z,54.13
2022-10-18T14:22:31.623Z,53.92
2022-10-18T14:24:59.251Z,54.05
2022-10-18T14:27:32.886Z,53.95
2022-10-18T14:30:17.664Z,53.80
2022-10-18T14:32:47.010Z,54.10
2022-10-18T14:35:33.587Z,54.01
2022-10-18T14:38:00.967Z,54.21
2022-10-18T14:40:40.546Z,54.11
2022-10-18T14:43:13.953Z,54.29
2022-10-18T14:45:41.818Z,53.86
2022-10-18T14:48:21.270Z,54.12
2022-10-18T14:50:59.480Z,53.81
2022-10-18T14:53:31.092Z,54.15
2022-10-18T14:56:01.212Z,54.24
2022-10-18T14:58:28.143Z,53.85
2022-10-18T15:00:55.213Z,54.03
2022-10-18T15:03:22.331Z,53.79
2022-10-18T15:05:56.894Z,53.86
2022-10-18T15:08:24.198Z,54.10
2022-10-18T15:10:51.195Z,54.29
2022-10-18T15:13:18.156Z,54.47
2022-10-18T15:15:45.163Z,54.41
2022-10-18T15:18:23.179Z,54.36
2022-10-18T15:21:08.907Z,54.48
2022-10-18T15:23:35.953Z,54.41
2022-10-18T15:26:10.170Z,54.12
2022-10-18T15:28:49.606Z,54.10
2022-10-18T15:31:29.020Z,54.20
2022-10-18T15:34:11.059Z,54.56
2022-10-18T15:36:38.112Z,54.48
2022-10-18T15:39:28.109Z,54.47
2022-10-18T15:41:56.117Z,54.49
2022-10-18T15:44:26.078Z,54.30
2022-10-18T15:46:57.710Z,54.51
2022-10-18T15:49:44.530Z,54.28
2022-10-18T15:52:38.170Z,54.59
2022-10-18T15:55:31.781Z,54.47
2022-10-18T15:58:17.159Z,54.39
2022-10-18T16:00:44.681Z,54.52
2022-10-18T16:03:11.706Z,54.50
2022-10-18T16:05:38.829Z,54.34
2022-10-18T16:08:05.980Z,54.55
2022-10-18T16:10:32.971Z,54.58
2022-10-18T16:12:59.957Z,54.49
2022-10-18T16:15:26.923Z,54.84
2022-10-18T16:17:53.890Z,54.91
2022-10-18T16:20:22.075Z,55.01
2022-10-18T16:22:49.115Z,54.82
2022-10-18T16:25:16.201Z,55.05
2022-10-18T16:27:43.218Z,54.86
2022-10-18T16:30:15.090Z,54.88
2022-10-18T16:32:42.128Z,54.78
2022-10-18T16:35:10.332Z,54.93
2022-10-18T16:37:38.472Z,54.73
2022-10-18T16:40:25.856Z,54.93
2022-10-18T16:42:52.886Z,55.00
2022-10-18T16:45:19.945Z,55.00
2022-10-18T16:47:46.955Z,54.95
2022-10-18T16:50:18.150Z,54.41
2022-10-18T16:52:45.283Z,54.61
2022-10-18T16:55:25.164Z,54.64
2022-10-18T16:57:52.121Z,54.83
2022-10-18T17:00:21.139Z,55.20
2022-10-18T17:02:48.959Z,54.44
2022-10-18T17:05:17.074Z,55.01
2022-10-18T17:07:44.177Z,55.76
2022-10-18T17:10:20.126Z,55.68
2022-10-18T17:12:47.123Z,56.00
2022-10-18T17:15:14.095Z,55.73
2022-10-18T17:17:41.218Z,55.76
2022-10-18T17:20:08.446Z,55.54
2022-10-18T17:22:35.445Z,55.70
2022-10-18T17:25:02.460Z,55.64
2022-10-18T17:27:29.459Z,55.48
2022-10-18T17:29:57.823Z,55.65
2022-10-18T17:32:24.802Z,55.67
2022-10-18T17:34:51.855Z,55.50
2022-10-18T17:37:18.875Z,55.60
2022-10-18T17:39:45.940Z,55.46
2022-10-18T17:42:12.925Z,55.65
2022-10-18T17:44:39.922Z,55.27
2022-10-18T17:47:07.893Z,55.32
2022-10-18T17:49:34.842Z,55.66
2022-10-18T17:52:06.098Z,55.55
2022-10-18T17:54:34.081Z,55.54
2022-10-18T17:57:01.118Z,55.51
2022-10-18T17:59:29.131Z,55.46
2022-10-18T18:01:56.140Z,55.40
2022-10-18T18:04:24.476Z,55.61
2022-10-18T18:06:53.072Z,55.40
2022-10-18T18:09:20.160Z,55.46
2022-10-18T18:11:51.741Z,55.48
2022-10-18T18:14:18.714Z,55.66
2022-10-18T18:16:46.738Z,55.64
2022-10-18T18:19:14.672Z,55.53
2022-10-18T18:21:41.807Z,55.76
2022-10-18T18:24:10.304Z,55.47
2022-10-18T18:26:38.565Z,55.45
2022-10-18T18:29:05.761Z,55.42
2022-10-18T18:31:37.681Z,55.44
2022-10-18T18:34:07.656Z,55.72
2022-10-18T18:36:35.050Z,55.30
2022-10-18T18:39:02.026Z,55.37
2022-10-18T18:41:29.226Z,55.46
2022-10-18T18:44:00.718Z,55.41
2022-10-18T18:46:29.786Z,55.45
2022-10-18T18:49:00.044Z,55.25
2022-10-18T18:51:27.025Z,55.26
2022-10-18T18:53:54.006Z,55.48
2022-10-18T18:56:22.622Z,55.42
2022-10-18T18:58:49.770Z,55.54
2022-10-18T19:01:18.835Z,55.59
2022-10-18T19:03:47.022Z,55.42
2022-10-18T19:06:19.431Z,55.45
2022-10-18T19:08:46.848Z,55.56
2022-10-18T19:11:18.303Z,55.45
2022-10-18T19:13:45.412Z,55.61
2022-10-18T19:16:22.525Z,55.90
2022-10-18T19:19:08.455Z,55.43
2022-10-18T19:21:38.124Z,55.45
2022-10-18T19:24:05.563Z,55.42
2022-10-18T19:26:44.853Z,55.74
2022-10-18T19:29:15.724Z,55.41
2022-10-18T19:31:43.126Z,55.80
2022-10-18T19:34:11.682Z,55.77
2022-10-18T19:36:39.215Z,55.66
2022-10-18T19:39:06.985Z,55.85
2022-10-18T19:41:33.986Z,55.64
2022-10-18T19:44:01.175Z,55.57
2022-10-18T19:46:28.301Z,55.68
2022-10-18T19:48:55.413Z,55.78
2022-10-18T19:51:26.890Z,55.59
2022-10-18T19:53:55.882Z,55.59
2022-10-18T19:56:23.739Z,55.80
2022-10-18T19:58:51.400Z,55.44
2022-10-18T20:01:19.707Z,55.90
2022-10-18T20:03:47.630Z,55.81
2022-10-18T20:06:15.152Z,55.87
2022-10-18T20:11:16.497Z,56.06
2022-10-18T20:13:43.997Z,56.10
2022-10-18T20:16:12.273Z,55.96
2022-10-18T20:18:39.860Z,56.38
2022-10-18T20:21:07.617Z,56.01
2022-10-18T20:23:38.655Z,55.92
2022-10-18T20:26:11.317Z,55.60
2022-10-18T20:28:38.763Z,55.92
2022-10-18T20:31:10.428Z,56.00
2022-10-18T20:33:38.111Z,56.29
2022-10-18T20:36:10.171Z,56.13
2022-10-18T20:38:38.864Z,56.03
2022-10-18T20:41:14.665Z,56.16
2022-10-18T20:43:41.805Z,56.16
2022-10-18T20:46:08.908Z,56.28
2022-10-18T20:48:36.085Z,56.44
2022-10-18T20:51:14.676Z,56.28
2022-10-18T20:53:41.664Z,56.34
2022-10-18T20:56:20.828Z,56.19
2022-10-18T20:58:50.094Z,56.39
2022-10-18T21:01:27.641Z,56.27
2022-10-18T21:03:55.986Z,56.17
2022-10-18T21:06:33.986Z,56.32
2022-10-18T21:09:05.351Z,56.30
2022-10-18T21:11:38.185Z,56.20
2022-10-18T21:14:06.481Z,56.22
2022-10-18T21:16:34.608Z,56.37
2022-10-18T21:19:05.453Z,56.24
2022-10-18T21:21:32.548Z,56.30
2022-10-18T21:24:02.499Z,56.37
2022-10-18T21:26:32.458Z,56.26
2022-10-18T21:28:59.727Z,56.21
2022-10-18T21:31:37.181Z,56.19
2022-10-18T21:34:06.773Z,55.47
2022-10-18T21:36:35.520Z,56.30
2022-10-18T21:39:03.621Z,56.18
2022-10-18T21:41:31.011Z,56.09
2022-10-18T21:43:57.957Z,56.06
2022-10-18T21:46:26.473Z,56.07
2022-10-18T21:48:55.185Z,56.07
2022-10-18T21:51:23.858Z,56.18
2022-10-18T21:53:52.327Z,56.12
2022-10-18T21:56:20.916Z,56.11
2022-10-18T21:58:47.915Z,56.12
2022-10-18T22:01:19.361Z,56.09
2022-10-18T22:03:47.751Z,55.94
2022-10-18T22:06:16.459Z,56.04
2022-10-18T22:08:51.881Z,56.25
2022-10-18T22:11:20.209Z,56.13
2022-10-18T22:13:47.363Z,56.03
2022-10-18T22:16:15.036Z,56.01
2022-10-18T22:18:42.377Z,56.12
2022-10-18T22:21:10.207Z,55.93
2022-10-18T22:23:43.489Z,56.19
2022-10-18T22:26:21.990Z,55.90
2022-10-18T22:28:49.844Z,56.12
2022-10-18T22:31:18.207Z,56.11
2022-10-18T22:33:45.497Z,56.06
2022-10-18T22:36:12.806Z,56.09
2022-10-18T22:38:39.923Z,56.08
2022-10-18T22:44:47.376Z,55.98
2022-10-18T22:47:14.310Z,56.08
2022-10-18T22:49:41.280Z,55.96
2022-10-18T22:52:08.242Z,56.07
2022-10-18T22:54:35.151Z,55.92
2022-10-18T22:57:02.120Z,56.07
2022-10-18T22:59:29.049Z,56.07
2022-10-18T23:01:56.016Z,55.97
2022-10-18T23:04:22.972Z,56.05
2022-10-18T23:06:49.933Z,55.84
2022-10-18T23:09:16.913Z,55.98
2022-10-18T23:11:43.951Z,56.03
2022-10-18T23:14:10.932Z,55.95
2022-10-18T23:16:37.906Z,56.05
2022-10-18T23:19:04.923Z,56.08
2022-10-18T23:21:31.869Z,56.10
2022-10-18T23:23:58.867Z,56.11
2022-10-18T23:26:26.747Z,56.18
2022-10-18T23:28:54.211Z,55.97
2022-10-18T23:31:30.710Z,55.99
2022-10-18T23:34:00.011Z,56.13
2022-10-18T23:36:27.040Z,56.11
2022-10-18T23:38:54.015Z,55.89
2022-10-18T23:41:21.011Z,55.69
2022-10-18T23:43:48.171Z,55.75
2022-10-18T23:46:15.574Z,55.99
2022-10-18T23:48:42.574Z,55.99
2022-10-18T23:51:10.128Z,56.08
2022-10-18T23:53:37.164Z,56.24
2022-10-18T23:56:11.589Z,55.97
2022-10-18T23:58:38.920Z,55.95
